createdAt,value
2018-09-21T00:00:15.542Z,14.63
2018-09-21T00:02:44.980Z,14.70
2018-09-21T00:05:14.453Z,16.00
2018-09-21T00:07:43.949Z,9.97
2018-09-21T00:10:13.435Z,26.00
2018-09-21T00:12:42.874Z,9.47
2018-09-21T00:15:12.290Z,27.07
2018-09-21T00:17:41.754Z,20.00
2018-09-21T00:20:11.215Z,14.80
2018-09-21T00:22:40.681Z,12.47
2018-09-21T00:25:10.239Z,21.20
2018-09-21T00:27:39.689Z,11.80
2018-09-21T00:30:09.193Z,21.60
2018-09-21T00:32:38.709Z,22.03
2018-09-21T00:35:08.198Z,10.40
2018-09-21T00:37:37.638Z,17.13
2018-09-21T00:40:07.182Z,10.90
2018-09-21T00:42:36.625Z,13.20
2018-09-21T00:45:06.329Z,20.43
2018-09-21T00:47:35.844Z,26.43
2018-09-21T00:50:05.393Z,15.03
2018-09-21T00:52:34.897Z,16.97
2018-09-21T00:55:04.512Z,16.10
2018-09-21T00:57:33.957Z,11.53
2018-09-21T01:00:03.565Z,19.50
2018-09-21T01:02:33.235Z,44.60
2018-09-21T01:05:02.754Z,12.13
2018-09-21T01:07:32.213Z,21.47
2018-09-21T01:10:01.722Z,28.47
2018-09-21T01:12:31.165Z,16.67
2018-09-21T01:15:00.613Z,20.77
2018-09-21T01:17:30.110Z,11.07
2018-09-21T01:19:59.760Z,14.07
2018-09-21T01:22:29.232Z,9.70
2018-09-21T01:24:58.755Z,13.57
2018-09-21T01:27:28.243Z,11.67
2018-09-21T01:29:57.724Z,13.70
2018-09-21T01:32:27.272Z,9.93
2018-09-21T01:34:56.740Z,10.27
2018-09-21T01:37:26.220Z,19.60
2018-09-21T01:39:55.937Z,13.50
2018-09-21T01:42:25.417Z,10.80
2018-09-21T01:44:55.049Z,10.20
2018-09-21T01:47:24.733Z,15.43
2018-09-21T01:49:54.247Z,11.80
2018-09-21T01:52:23.830Z,13.13
2018-09-21T01:54:53.498Z,13.70
2018-09-21T01:57:23.089Z,14.47
2018-09-21T01:59:52.652Z,12.80
2018-09-21T02:02:22.286Z,11.63
2018-09-21T02:04:51.932Z,11.40
2018-09-21T02:07:21.500Z,9.63
2018-09-21T02:09:51.706Z,19.13
2018-09-21T02:12:21.371Z,14.13
2018-09-21T02:14:50.977Z,16.20
2018-09-21T02:17:20.877Z,18.93
2018-09-21T02:19:50.502Z,16.30
2018-09-21T02:22:20.105Z,13.77
2018-09-21T02:24:49.807Z,16.03
2018-09-21T02:27:19.385Z,20.87
2018-09-21T02:29:48.998Z,13.10
2018-09-21T02:32:18.586Z,22.70
2018-09-21T02:34:48.152Z,11.50
2018-09-21T02:37:17.754Z,12.67
2018-09-21T02:39:47.569Z,14.93
2018-09-21T02:42:17.209Z,19.83
2018-09-21T02:44:46.887Z,11.47
2018-09-21T02:47:16.517Z,14.07
2018-09-21T02:49:46.108Z,11.30
2018-09-21T02:52:15.728Z,16.23
2018-09-21T02:54:45.369Z,13.93
2018-09-21T02:57:14.960Z,16.63
2018-09-21T02:59:44.611Z,12.90
2018-09-21T03:02:14.197Z,16.17
2018-09-21T03:04:48.948Z,12.90
2018-09-21T03:07:18.573Z,16.03
2018-09-21T03:09:48.113Z,16.20
2018-09-21T03:12:17.699Z,10.97
2018-09-21T03:14:47.310Z,23.17
2018-09-21T03:17:16.890Z,13.33
2018-09-21T03:19:46.464Z,12.93
2018-09-21T03:22:16.219Z,16.93
2018-09-21T03:24:45.797Z,20.23
2018-09-21T03:27:15.403Z,12.93
2018-09-21T03:29:44.983Z,11.47
2018-09-21T03:32:14.548Z,11.90
2018-09-21T03:34:44.155Z,13.53
2018-09-21T03:37:13.815Z,11.60
2018-09-21T03:39:43.374Z,13.50
2018-09-21T03:42:12.969Z,19.00
2018-09-21T03:44:42.772Z,12.10
2018-09-21T03:47:12.328Z,13.47
2018-09-21T03:49:42.009Z,11.50
2018-09-21T03:52:11.627Z,12.93
2018-09-21T03:54:41.180Z,26.70
2018-09-21T03:57:10.822Z,18.50
2018-09-21T03:59:40.398Z,12.03
2018-09-21T04:02:10.021Z,12.50
2018-09-21T04:04:42.904Z,21.70
2018-09-21T04:07:12.732Z,21.63
2018-09-21T04:09:42.297Z,15.27
2018-09-21T04:12:11.854Z,14.57
2018-09-21T04:14:41.401Z,11.43
2018-09-21T04:17:10.964Z,12.70
2018-09-21T04:19:40.636Z,21.20
2018-09-21T04:22:10.177Z,10.87
2018-09-21T04:24:39.748Z,16.20
2018-09-21T04:27:09.337Z,11.47
2018-09-21T04:29:38.945Z,13.70
2018-09-21T04:32:08.506Z,12.90
2018-09-21T04:34:38.074Z,17.13
2018-09-21T04:37:07.707Z,13.50
2018-09-21T04:39:37.409Z,13.20
2018-09-21T04:42:07.005Z,24.93
2018-09-21T04:44:36.675Z,13.03
2018-09-21T04:47:06.299Z,12.90
2018-09-21T04:49:36.011Z,18.43
2018-09-21T04:52:05.741Z,15.30
2018-09-21T04:54:35.309Z,11.83
2018-09-21T04:57:04.916Z,10.70
2018-09-21T04:59:34.560Z,11.10
2018-09-21T05:02:04.152Z,11.00
2018-09-21T05:04:33.697Z,12.23
2018-09-21T05:07:03.278Z,18.77
2018-09-21T05:09:32.837Z,11.60
2018-09-21T05:12:02.506Z,12.03
2018-09-21T05:14:32.198Z,10.93
2018-09-21T05:17:01.764Z,18.27
2018-09-21T05:19:31.616Z,13.47
2018-09-21T05:22:01.237Z,11.47
2018-09-21T05:24:30.773Z,12.07
2018-09-21T05:27:00.359Z,14.27
2018-09-21T05:29:29.945Z,15.63
2018-09-21T05:31:59.527Z,30.57
2018-09-21T05:34:29.305Z,11.57
2018-09-21T05:37:05.697Z,20.40
2018-09-21T05:39:35.385Z,14.47
2018-09-21T05:42:05.070Z,13.90
2018-09-21T05:44:34.651Z,19.40
2018-09-21T05:47:04.511Z,15.20
2018-09-21T05:49:34.120Z,11.83
2018-09-21T05:52:03.728Z,12.23
2018-09-21T05:54:33.338Z,11.57
2018-09-21T05:57:02.896Z,11.13
2018-09-21T05:59:32.493Z,17.33
2018-09-21T06:02:02.365Z,20.30
2018-09-21T06:04:31.916Z,10.70
2018-09-21T06:07:01.741Z,12.00
2018-09-21T06:09:31.507Z,11.03
2018-09-21T06:12:01.254Z,26.50
2018-09-21T06:14:30.901Z,9.93
2018-09-21T06:17:00.532Z,14.23
2018-09-21T06:19:30.208Z,15.20
2018-09-21T06:21:59.789Z,15.93
2018-09-21T06:24:29.585Z,13.77
2018-09-21T06:26:59.177Z,8.50
2018-09-21T06:29:28.763Z,12.83
2018-09-21T06:31:58.376Z,7.90
2018-09-21T06:34:28.016Z,7.53
2018-09-21T06:36:57.625Z,7.90
2018-09-21T06:39:27.372Z,6.73
2018-09-21T06:41:56.984Z,8.07
2018-09-21T06:44:26.627Z,14.63
2018-09-21T06:46:56.371Z,7.73
2018-09-21T06:49:26.065Z,8.90
2018-09-21T06:51:55.748Z,11.03
2018-09-21T06:54:25.424Z,16.90
2018-09-21T06:56:55.045Z,17.73
2018-09-21T06:59:24.669Z,10.43
2018-09-21T07:01:54.534Z,7.00
2018-09-21T07:04:24.192Z,6.93
2018-09-21T07:06:53.803Z,8.37
2018-09-21T07:09:23.409Z,11.23
2018-09-21T07:11:53.077Z,7.37
2018-09-21T07:14:22.663Z,8.23
2018-09-21T07:16:52.332Z,18.97
2018-09-21T07:19:22.029Z,17.93
2018-09-21T07:21:51.641Z,8.13
2018-09-21T07:24:21.280Z,9.27
2018-09-21T07:26:50.913Z,9.53
2018-09-21T07:29:20.560Z,14.43
2018-09-21T07:31:50.151Z,11.80
2018-09-21T07:34:19.752Z,9.63
2018-09-21T07:36:49.993Z,8.40
2018-09-21T07:39:19.548Z,8.53
2018-09-21T07:41:49.117Z,32.70
2018-09-21T07:44:18.734Z,8.47
2018-09-21T07:46:48.542Z,7.33
2018-09-21T07:49:18.155Z,12.23
2018-09-21T07:51:47.748Z,6.47
2018-09-21T07:54:17.372Z,9.80
2018-09-21T07:56:47.008Z,5.80
2018-09-21T07:59:16.596Z,8.33
2018-09-21T08:01:46.229Z,6.23
2018-09-21T08:04:15.782Z,7.73
2018-09-21T08:06:45.429Z,9.30
2018-09-21T08:09:15.247Z,4.00
2018-09-21T08:11:44.890Z,5.20
2018-09-21T08:14:14.545Z,4.40
2018-09-21T08:16:44.245Z,9.23
2018-09-21T08:19:13.826Z,5.17
2018-09-21T08:21:43.460Z,12.93
2018-09-21T08:24:13.144Z,6.90
2018-09-21T08:26:42.902Z,6.93
2018-09-21T08:29:12.489Z,14.97
2018-09-21T08:31:42.214Z,3.90
2018-09-21T08:34:11.897Z,4.50
2018-09-21T08:36:41.498Z,3.90
2018-09-21T08:39:12.236Z,5.73
2018-09-21T08:41:42.229Z,10.27
2018-09-21T08:44:11.842Z,10.77
2018-09-21T08:46:41.511Z,10.00
2018-09-21T08:49:11.200Z,8.03
2018-09-21T08:51:40.885Z,9.90
2018-09-21T08:54:10.617Z,17.33
2018-09-21T08:56:40.217Z,6.87
2018-09-21T08:59:09.899Z,5.27
2018-09-21T09:01:39.589Z,5.53
2018-09-21T09:04:09.786Z,22.73
2018-09-21T09:06:39.415Z,5.90
2018-09-21T09:09:10.876Z,7.30
2018-09-21T09:11:40.753Z,6.43
2018-09-21T09:14:10.727Z,22.77
2018-09-21T09:16:40.771Z,15.33
2018-09-21T09:19:10.431Z,13.70
2018-09-21T09:21:40.249Z,15.87
2018-09-21T09:24:09.897Z,5.60
2018-09-21T09:26:39.512Z,17.10
2018-09-21T09:29:09.522Z,12.07
2018-09-21T09:31:39.585Z,10.20
2018-09-21T09:34:09.568Z,12.73
2018-09-21T09:36:39.315Z,9.53
2018-09-21T09:39:12.421Z,14.33
2018-09-21T09:41:42.080Z,4.40
2018-09-21T09:44:11.983Z,4.50
2018-09-21T09:46:41.721Z,12.33
2018-09-21T09:49:11.341Z,7.53
2018-09-21T09:51:41.058Z,16.80
2018-09-21T09:54:10.710Z,31.00
2018-09-21T09:56:40.449Z,8.70
2018-09-21T09:59:10.043Z,20.10
2018-09-21T10:01:39.672Z,6.07
2018-09-21T10:04:09.295Z,12.77
2018-09-21T10:06:38.889Z,23.27
2018-09-21T10:09:10.998Z,11.63
2018-09-21T10:11:41.197Z,9.00
2018-09-21T10:14:11.033Z,4.00
2018-09-21T10:16:40.855Z,5.67
2018-09-21T10:19:10.464Z,19.10
2018-09-21T10:21:40.223Z,15.63
2018-09-21T10:24:09.993Z,11.40
2018-09-21T10:26:39.586Z,12.53
2018-09-21T10:29:09.355Z,17.47
2018-09-21T10:31:39.003Z,12.70
2018-09-21T10:34:08.629Z,9.17
2018-09-21T10:36:38.256Z,16.60
2018-09-21T10:39:08.543Z,11.20
2018-09-21T10:41:38.354Z,14.80
2018-09-21T10:44:08.329Z,10.80
2018-09-21T10:46:38.181Z,9.03
2018-09-21T10:49:07.834Z,12.40
2018-09-21T10:51:37.521Z,11.70
2018-09-21T10:54:07.267Z,11.27
2018-09-21T10:56:36.836Z,9.10
2018-09-21T10:59:06.502Z,10.73
2018-09-21T11:01:36.125Z,12.77
2018-09-21T11:04:05.951Z,10.20
2018-09-21T11:06:35.535Z,19.70
2018-09-21T11:09:08.625Z,20.00
2018-09-21T11:11:38.333Z,16.67
2018-09-21T11:14:07.956Z,16.53
2018-09-21T11:16:37.702Z,10.23
2018-09-21T11:19:07.337Z,15.60
2018-09-21T11:21:37.029Z,7.70
2018-09-21T11:24:06.692Z,17.87
2018-09-21T11:26:36.261Z,20.23
2018-09-21T11:29:06.086Z,11.63
2018-09-21T11:31:35.665Z,18.37
2018-09-21T11:34:05.231Z,40.43
2018-09-21T11:36:34.829Z,17.20
2018-09-21T11:39:09.162Z,19.93
2018-09-21T11:41:38.789Z,18.93
2018-09-21T11:44:08.653Z,12.73
2018-09-21T11:46:38.318Z,23.50
2018-09-21T11:49:08.013Z,12.23
2018-09-21T11:51:37.574Z,19.70
2018-09-21T11:54:07.289Z,38.60
2018-09-21T11:56:36.817Z,50.63
2018-09-21T11:59:06.417Z,14.00
2018-09-21T12:01:36.066Z,23.00
2018-09-21T12:04:05.634Z,41.17
2018-09-21T12:06:35.153Z,37.03
2018-09-21T12:09:05.356Z,41.30
2018-09-21T12:11:35.258Z,57.97
2018-09-21T12:14:05.027Z,25.83
2018-09-21T12:16:34.651Z,23.43
2018-09-21T12:19:04.277Z,16.00
2018-09-21T12:21:33.972Z,33.97
2018-09-21T12:24:03.580Z,17.30
2018-09-21T12:26:33.144Z,25.07
2018-09-21T12:29:02.731Z,35.73
2018-09-21T12:31:32.315Z,38.67
2018-09-21T12:34:01.873Z,36.73
2018-09-21T12:36:31.692Z,49.17
2018-09-21T12:39:01.230Z,55.27
2018-09-21T12:41:30.834Z,33.83
2018-09-21T12:44:00.400Z,32.07
2018-09-21T12:46:30.416Z,31.03
2018-09-21T12:49:03.653Z,18.67
2018-09-21T12:51:34.516Z,36.47
2018-09-21T12:54:04.155Z,29.90
2018-09-21T12:56:33.752Z,19.77
2018-09-21T12:59:03.417Z,15.50
2018-09-21T13:01:32.969Z,55.57
2018-09-21T13:04:02.651Z,46.57
2018-09-21T13:06:32.297Z,25.00
2018-09-21T13:09:01.866Z,31.23
2018-09-21T13:11:31.484Z,42.13
2018-09-21T13:14:01.091Z,54.93
2018-09-21T13:16:30.750Z,53.93
2018-09-21T13:19:00.489Z,43.93
2018-09-21T13:21:30.110Z,39.07
2018-09-21T13:23:59.719Z,34.33
2018-09-21T13:26:29.326Z,58.50
2018-09-21T13:28:59.182Z,32.07
2018-09-21T13:31:28.765Z,40.57
2018-09-21T13:33:58.391Z,20.53
2018-09-21T13:36:28.238Z,23.23
2018-09-21T13:38:57.820Z,14.93
2018-09-21T13:41:27.473Z,26.53
2018-09-21T13:43:57.094Z,29.63
2018-09-21T13:46:26.653Z,49.83
2018-09-21T13:48:56.398Z,18.53
2018-09-21T13:51:25.988Z,25.77
2018-09-21T13:53:55.577Z,22.03
2018-09-21T13:56:25.278Z,45.67
2018-09-21T13:58:55.404Z,32.13
2018-09-21T14:01:24.966Z,17.70
2018-09-21T14:03:54.574Z,16.80
2018-09-21T14:06:24.149Z,14.57
2018-09-21T14:08:53.765Z,35.73
2018-09-21T14:11:23.350Z,32.73
2018-09-21T14:13:52.905Z,19.77
2018-09-21T14:16:22.462Z,35.10
2018-09-21T14:18:52.049Z,20.07
2018-09-21T14:21:21.649Z,24.23
2018-09-21T14:23:51.245Z,44.33
2018-09-21T14:26:20.871Z,15.13
2018-09-21T14:28:50.470Z,23.43
2018-09-21T14:31:20.012Z,31.73
2018-09-21T14:33:49.721Z,21.17
2018-09-21T14:36:19.482Z,16.80
2018-09-21T14:38:49.021Z,13.90
2018-09-21T14:41:18.723Z,13.30
2018-09-21T14:43:48.952Z,68.03
2018-09-21T14:46:18.513Z,143.23
2018-09-21T14:48:48.138Z,88.97
2018-09-21T14:51:17.728Z,80.90
2018-09-21T14:53:47.314Z,78.40
2018-09-21T14:56:17.024Z,76.67
2018-09-21T14:58:46.713Z,62.80
2018-09-21T15:01:16.300Z,36.43
2018-09-21T15:03:45.879Z,30.70
2018-09-21T15:06:15.476Z,25.53
2018-09-21T15:08:45.114Z,14.77
2018-09-21T15:11:15.165Z,31.87
2018-09-21T15:13:44.808Z,9.50
2018-09-21T15:16:14.480Z,8.90
2018-09-21T15:18:44.101Z,7.53
2018-09-21T15:21:13.749Z,6.33
2018-09-21T15:23:43.299Z,5.57
2018-09-21T15:26:12.900Z,6.70
2018-09-21T15:28:42.490Z,9.70
2018-09-21T15:31:12.057Z,6.20
2018-09-21T15:33:41.689Z,13.30
2018-09-21T15:36:11.315Z,2.23
2018-09-21T15:38:40.944Z,4.83
2018-09-21T15:41:10.583Z,5.33
2018-09-21T15:43:40.287Z,10.53
2018-09-21T15:46:09.812Z,8.30
2018-09-21T15:48:39.466Z,9.13
2018-09-21T15:51:09.546Z,3.20
2018-09-21T15:53:39.172Z,4.43
2018-09-21T15:56:08.857Z,6.80
2018-09-21T15:58:38.507Z,3.17
2018-09-21T16:01:08.127Z,6.67
2018-09-21T16:03:37.741Z,4.83
2018-09-21T16:06:07.505Z,2.50
2018-09-21T16:08:37.052Z,7.33
2018-09-21T16:11:06.644Z,3.00
2018-09-21T16:13:36.213Z,4.00
2018-09-21T16:16:05.781Z,2.73
2018-09-21T16:18:35.488Z,1.80
2018-09-21T16:21:05.447Z,1.93
2018-09-21T16:23:35.285Z,2.87
2018-09-21T16:26:04.841Z,6.90
2018-09-21T16:28:34.413Z,6.70
2018-09-21T16:31:04.145Z,8.33
2018-09-21T16:33:33.745Z,5.20
2018-09-21T16:36:03.408Z,3.40
2018-09-21T16:38:32.885Z,18.50
2018-09-21T16:41:02.555Z,6.13
2018-09-21T16:43:32.102Z,8.30
2018-09-21T16:46:01.879Z,3.67
2018-09-21T16:48:31.499Z,3.50
2018-09-21T16:51:01.566Z,4.73
2018-09-21T16:53:31.109Z,3.03
2018-09-21T16:56:00.705Z,1.33
2018-09-21T16:58:30.444Z,2.03
2018-09-21T17:00:59.986Z,6.10
2018-09-21T17:03:29.631Z,4.70
2018-09-21T17:05:59.353Z,7.20
2018-09-21T17:08:28.901Z,5.70
2018-09-21T17:10:58.476Z,3.87
2018-09-21T17:13:28.178Z,5.07
2018-09-21T17:15:57.709Z,4.90
2018-09-21T17:18:27.277Z,7.87
2018-09-21T17:20:56.906Z,4.17
2018-09-21T17:23:26.532Z,9.20
2018-09-21T17:25:56.109Z,5.60
2018-09-21T17:28:25.830Z,4.37
2018-09-21T17:30:55.420Z,7.53
2018-09-21T17:33:24.994Z,4.23
2018-09-21T17:35:54.553Z,6.23
2018-09-21T17:38:24.077Z,8.73
2018-09-21T17:40:53.714Z,8.13
2018-09-21T17:43:23.274Z,7.10
2018-09-21T17:45:52.802Z,9.13
2018-09-21T17:48:22.574Z,10.60
2018-09-21T17:50:52.124Z,7.90
2018-09-21T17:53:21.706Z,5.90
2018-09-21T17:55:51.331Z,7.63
2018-09-21T17:58:20.904Z,7.27
2018-09-21T18:00:50.612Z,5.93
2018-09-21T18:03:20.157Z,5.00
2018-09-21T18:05:49.716Z,7.53
2018-09-21T18:08:19.577Z,5.57
2018-09-21T18:10:49.120Z,22.33
2018-09-21T18:13:18.717Z,10.03
2018-09-21T18:15:48.501Z,6.20
2018-09-21T18:18:18.233Z,8.87
2018-09-21T18:20:47.809Z,15.20
2018-09-21T18:23:17.380Z,12.27
2018-09-21T18:25:47.078Z,15.93
2018-09-21T18:28:16.613Z,5.70
2018-09-21T18:30:46.161Z,6.60
2018-09-21T18:33:15.940Z,6.53
2018-09-21T18:35:45.476Z,9.70
2018-09-21T18:38:15.036Z,6.53
2018-09-21T18:40:44.745Z,5.90
2018-09-21T18:43:14.330Z,4.70
2018-09-21T18:45:44.316Z,3.60
2018-09-21T18:48:13.889Z,8.43
2018-09-21T18:50:43.584Z,6.40
2018-09-21T18:53:13.138Z,12.60
2018-09-21T18:55:42.890Z,6.77
2018-09-21T18:58:12.510Z,6.30
2018-09-21T19:00:42.123Z,8.60
2018-09-21T19:03:12.145Z,5.83
2018-09-21T19:05:41.732Z,6.57
2018-09-21T19:08:11.337Z,5.47
2018-09-21T19:10:40.900Z,5.63
2018-09-21T19:13:10.472Z,10.63
2018-09-21T19:15:40.031Z,9.43
2018-09-21T19:18:09.593Z,7.60
2018-09-21T19:20:39.185Z,8.50
2018-09-21T19:23:08.769Z,8.53
2018-09-21T19:25:38.412Z,11.93
2018-09-21T19:28:08.008Z,4.97
2018-09-21T19:30:37.540Z,3.93
2018-09-21T19:33:07.187Z,10.53
2018-09-21T19:35:36.846Z,6.47
2018-09-21T19:38:06.996Z,4.80
2018-09-21T19:40:36.603Z,7.70
2018-09-21T19:43:06.515Z,8.57
2018-09-21T19:45:36.098Z,6.30
2018-09-21T19:48:06.005Z,9.73
2018-09-21T19:50:35.616Z,5.00
2018-09-21T19:53:05.243Z,7.93
2018-09-21T19:55:34.806Z,7.77
2018-09-21T19:58:04.393Z,5.60
2018-09-21T20:00:34.061Z,3.77
2018-09-21T20:03:03.676Z,3.57
2018-09-21T20:05:33.306Z,14.33
2018-09-21T20:08:03.012Z,8.83
2018-09-21T20:10:32.588Z,9.67
2018-09-21T20:13:02.170Z,6.43
2018-09-21T20:15:31.752Z,13.97
2018-09-21T20:18:01.352Z,7.93
2018-09-21T20:20:30.920Z,4.00
2018-09-21T20:23:00.490Z,7.93
2018-09-21T20:25:30.133Z,9.90
2018-09-21T20:27:59.737Z,7.10
2018-09-21T20:30:34.335Z,9.60
2018-09-21T20:33:08.991Z,5.43
2018-09-21T20:35:38.644Z,4.33
2018-09-21T20:38:08.274Z,8.97
2018-09-21T20:40:37.822Z,5.40
2018-09-21T20:43:07.408Z,14.90
2018-09-21T20:45:36.980Z,8.47
2018-09-21T20:48:06.578Z,10.63
2018-09-21T20:50:36.216Z,16.23
2018-09-21T20:53:05.779Z,10.60
2018-09-21T20:55:35.428Z,14.20
2018-09-21T20:58:05.380Z,15.50
2018-09-21T21:00:34.992Z,12.30
2018-09-21T21:03:04.720Z,14.70
2018-09-21T21:05:34.405Z,18.47
2018-09-21T21:08:04.001Z,9.50
2018-09-21T21:10:33.595Z,11.87
2018-09-21T21:13:03.150Z,8.73
2018-09-21T21:15:32.733Z,12.20
2018-09-21T21:18:02.300Z,12.70
2018-09-21T21:20:31.845Z,6.50
2018-09-21T21:23:01.444Z,5.97
2018-09-21T21:25:31.053Z,4.80
2018-09-21T21:28:00.664Z,3.17
2018-09-21T21:30:30.340Z,11.87
2018-09-21T21:32:59.957Z,8.70
2018-09-21T21:35:29.556Z,5.60
2018-09-21T21:37:59.205Z,6.20
2018-09-21T21:40:28.829Z,4.53
2018-09-21T21:42:58.394Z,6.23
2018-09-21T21:45:27.999Z,3.60
2018-09-21T21:47:57.537Z,5.47
2018-09-21T21:50:27.076Z,5.93
2018-09-21T21:52:56.871Z,6.20
2018-09-21T21:55:26.577Z,7.57
2018-09-21T21:57:56.156Z,4.30
2018-09-21T22:00:29.816Z,4.43
2018-09-21T22:02:59.402Z,5.07
2018-09-21T22:05:28.962Z,3.67
2018-09-21T22:07:58.581Z,9.20
2018-09-21T22:10:28.288Z,7.27
2018-09-21T22:13:03.088Z,4.80
2018-09-21T22:15:32.691Z,2.83
2018-09-21T22:18:02.340Z,5.03
2018-09-21T22:20:32.035Z,6.87
2018-09-21T22:23:01.618Z,4.33
2018-09-21T22:25:31.172Z,2.20
2018-09-21T22:28:00.859Z,7.17
2018-09-21T22:30:30.470Z,4.10
2018-09-21T22:33:00.096Z,6.80
2018-09-21T22:35:30.105Z,2.60
2018-09-21T22:37:59.824Z,3.03
2018-09-21T22:40:29.582Z,8.53
2018-09-21T22:42:59.332Z,12.63
2018-09-21T22:45:28.953Z,5.20
2018-09-21T22:47:58.557Z,3.30
2018-09-21T22:50:28.198Z,8.60
2018-09-21T22:52:57.885Z,5.17
2018-09-21T22:55:27.572Z,5.87
2018-09-21T22:57:57.146Z,5.93
2018-09-21T23:00:26.849Z,10.50
2018-09-21T23:02:56.502Z,2.90
2018-09-21T23:05:26.216Z,13.67
2018-09-21T23:07:55.936Z,4.40
2018-09-21T23:10:25.527Z,2.23
2018-09-21T23:12:55.360Z,4.50
2018-09-21T23:15:24.978Z,10.93
2018-09-21T23:17:54.523Z,5.40
2018-09-21T23:20:24.131Z,2.20
2018-09-21T23:22:53.692Z,5.97
2018-09-21T23:25:23.255Z,5.70
2018-09-21T23:27:52.882Z,6.53
2018-09-21T23:30:22.564Z,5.23
2018-09-21T23:32:52.229Z,5.77
2018-09-21T23:35:22.136Z,1.73
2018-09-21T23:37:51.790Z,7.33
2018-09-21T23:40:21.354Z,5.73
2018-09-21T23:42:50.976Z,8.30
2018-09-21T23:45:20.535Z,3.77
2018-09-21T23:47:50.160Z,9.30
2018-09-21T23:50:20.136Z,5.70
2018-09-21T23:52:49.712Z,4.10
2018-09-21T23:55:19.277Z,4.97
2018-09-21T23:57:49.116Z,12.03
